Orbital elements of SL-12 R/B(2)
| Launched | 24 October 1985 |
| Flight ended | – |
| Launch site | Tyuratam Missile and Space Center, Kazakhstan (Also known as Baikonur Cosmodrome) |
| Owner | Commonwealth of Independent States (former USSR) |
| NORAD ID | 16214 |
| Date fetched |
Epoch osculation |
Inc. [°] |
Ecc. | RA asc node [hr] |
Arg Peri. [°] |
Mean anom [°] |
Mean motion [rev/day] |
Abs. mag |
| Date fetched |
Epoch osculation |
Inc. [°] |
Ecc. | RA asc node [hr] |
Arg Peri. [°] |
Mean anom [°] |
Mean motion [rev/day] |
Abs. mag |
| 2026 May 01 17:56 | 2026 Apr 30 12:54:39 | 9.5293 | 0.00192 | 21.2216 | 155.3741 | 196.3718 | 1.00636 | – |
| 2026 Apr 30 17:56 | 2026 Apr 30 12:54:39 | 9.5293 | 0.00192 | 21.2216 | 155.3741 | 196.3718 | 1.00636 | – |
| 2026 Apr 29 17:57 | 2026 Apr 24 04:19:38 | 9.5401 | 0.00192 | 21.2241 | 155.0359 | 196.3718 | 1.00636 | – |
| 2026 Apr 28 17:56 | 2026 Apr 24 04:19:38 | 9.5401 | 0.00192 | 21.2241 | 155.0359 | 196.3718 | 1.00636 | – |
| 2026 Apr 27 17:58 | 2026 Apr 24 04:19:38 | 9.5401 | 0.00192 | 21.2241 | 155.0359 | 196.3718 | 1.00636 | – |
| 2026 Apr 26 17:58 | 2026 Apr 24 04:19:38 | 9.5401 | 0.00192 | 21.2241 | 155.0359 | 196.3718 | 1.00636 | – |
| 2026 Apr 25 17:58 | 2026 Apr 24 04:19:38 | 9.5401 | 0.00192 | 21.2241 | 155.0359 | 196.3718 | 1.00636 | – |
| 2026 Apr 24 17:59 | 2026 Apr 24 04:19:38 | 9.5401 | 0.00192 | 21.2241 | 155.0359 | 196.3718 | 1.00636 | – |
| 2026 Apr 23 17:57 | 2026 Apr 19 03:02:37 | 9.5484 | 0.00191 | 21.2262 | 154.7966 | 196.3718 | 1.00636 | – |
| 2026 Apr 22 17:57 | 2026 Apr 19 03:02:37 | 9.5484 | 0.00191 | 21.2262 | 154.7966 | 196.3718 | 1.00636 | – |
| 2026 Apr 21 17:57 | 2026 Apr 19 03:02:37 | 9.5484 | 0.00191 | 21.2262 | 154.7966 | 196.3718 | 1.00636 | – |
| 2026 Apr 20 17:57 | 2026 Apr 19 03:02:37 | 9.5484 | 0.00191 | 21.2262 | 154.7966 | 196.3718 | 1.00636 | – |
| 2026 Apr 19 17:58 | 2026 Apr 19 03:02:37 | 9.5484 | 0.00191 | 21.2262 | 154.7966 | 196.3718 | 1.00636 | – |
| 2026 Apr 18 17:56 | 2026 Apr 13 04:03:38 | 9.5584 | 0.00190 | 21.2286 | 154.7510 | 196.3718 | 1.00636 | – |
| 2026 Apr 16 17:57 | 2026 Apr 13 04:03:38 | 9.5584 | 0.00190 | 21.2286 | 154.7510 | 196.3718 | 1.00636 | – |
| 2026 Apr 14 17:57 | 2026 Apr 13 04:03:38 | 9.5584 | 0.00190 | 21.2286 | 154.7510 | 196.3718 | 1.00636 | – |
| 2026 Apr 13 17:57 | 2026 Apr 13 04:03:38 | 9.5584 | 0.00190 | 21.2286 | 154.7510 | 196.3718 | 1.00636 | – |
| 2026 Apr 12 17:57 | 2026 Apr 08 12:08:44 | 9.5663 | 0.00189 | 21.2304 | 154.7803 | 196.3718 | 1.00636 | – |
| 2026 Apr 11 17:57 | 2026 Apr 08 12:08:44 | 9.5663 | 0.00189 | 21.2304 | 154.7803 | 196.3718 | 1.00636 | – |
| 2026 Apr 10 17:58 | 2026 Apr 08 12:08:44 | 9.5663 | 0.00189 | 21.2304 | 154.7803 | 196.3718 | 1.00636 | – |
| 2026 Apr 09 18:01 | 2026 Apr 08 12:08:44 | 9.5663 | 0.00189 | 21.2304 | 154.7803 | 196.3718 | 1.00636 | – |
| 2026 Apr 08 17:57 | 2026 Apr 08 12:08:44 | 9.5663 | 0.00189 | 21.2304 | 154.7803 | 196.3718 | 1.00636 | – |
| 2026 Apr 07 17:57 | 2026 Apr 02 05:21:51 | 9.5771 | 0.00189 | 21.2328 | 154.7572 | 196.3718 | 1.00636 | – |
| 2026 Apr 06 17:57 | 2026 Apr 02 05:21:51 | 9.5771 | 0.00189 | 21.2328 | 154.7572 | 196.3718 | 1.00636 | – |
| 2026 Apr 05 17:56 | 2026 Apr 02 05:21:51 | 9.5771 | 0.00189 | 21.2328 | 154.7572 | 196.3718 | 1.00636 | – |
| 2026 Apr 04 17:57 | 2026 Apr 02 05:21:51 | 9.5771 | 0.00189 | 21.2328 | 154.7572 | 196.3718 | 1.00636 | – |